Airfield :
LOGIN :

Register | Disclaimer

   EN    FR    IT 

 










Legend :    VFR   Marginal VFR   IFR   Intensive IFR   Very Intensive IFR
Visi :
Ceiling :
>= 8 km
>= 3000ft
5 to 8 km
1000 to 3000 ft
1500m to 5 km
500 to 1000 ft
800 to 1500m
200 to 500 ft
< 800m
< 200 ft
Symbols :   Thunderstorms  Fog  Heavy snow  Heavy precipitations  Wind > 20 kt
SIGMETs :     Misc.  Thunderstorms  Icing  Turbulence  Mountain Waves  Volcanic Ashes






- Airport Elevation : 24 ft
- IATA code : FAO


LPFR - Faro

CURRENT METAR :
  • 051930Z 28013KT CAVOK 27/16 Q1016

EXPIRED METARs :
  • 051900Z 26011KT CAVOK 25/18 Q1016
  • 051830Z 26011KT CAVOK 25/17 Q1016
  • 051800Z 25010KT CAVOK 27/16 Q1015
  • 051730Z 24009KT CAVOK 28/16 Q1015
  • 051700Z 27007KT 250V310 CAVOK 29/16 Q1016

TAF TAF LPFR
Valid from the 05 at 18:00 until the 06 at 18:00 UTC


051700Z 0518/0618 26012KT CAVOK
BECMG 0521/0524 VRB05KT
BECMG 0603/0606 12007KT
BECMG 0609/0612 19005KT
BECMG 0615/0617 25012KT



MET'MAP, your aeronautical weather chart ! - Copyright ORBIFLY December 2007 - Disclaimer

ORBIFLY MET'MAP TEAM :

Programming & Development : Alexandra Zaïnal
Concept & original design : Baudouin d'Aumeries
Assistance for programming : Marc-Olivier Méhu
Technical & hardware support : Manuel Goepfert

Contact : metmap@orbifly.com




SOURCES & CREDITS :

   NOAA